CFD9 weather

CLOSED Bjorgum Farm Airport
Bjorgum Farm, Alberta, Canada

Public forecast

Using degrees Celsius for public forecast. Weather courtesy of forecast.io.

METAR (pilot weather report)

Closest report is Edmonton International Airport, 31.1 nm (57.6 km) WNW. Retrieved 2019/07/16 15:00 UTC (55 minutes ago):

CYEG 161500Z 22005KT 20SM FEW080 FEW110 BKN220 15/13 A2992 RMK ACC1AC2CI5 ACC TR SLP140 DENSITY ALT 3000FT

TAF (pilot weather forecast)

Closest forecast is Edmonton International Airport, 31.1 nm (57.6 km) WNW. Retrieved 2019/07/16 15:42 UTC (13 minutes ago):

TAF TAF CYEG 161438Z 1615/1712 25006KT P6SM FEW080 SCT100 BKN200 TEMPO 1615/1618 P6SM VCSH BKN080 BKN200 FM161800 30010KT P6SM BKN080 BKN200 TEMPO 1618/1621 P6SM -SHRA VCTS SCT060CB OVC080 FM162100 30008KT P6SM BKN080 BKN200 TEMPO 1621/1703 P6SM -SHRA PROB30 1621/1702 VRB20G30KT 5SM TSRA BKN050CB FM170300 16007KT P6SM BKN050 FM170800 18008KT P6SM FEW050 PROB30 1710/1712 3/4SM BR RMK NXT FCST BY 161800Z